sensor_id;sensor_type;location;lat;lon;timestamp;pressure;altitude;pressure_sealevel;temperature;humidity
36354;BME280;22383;51.114;13.666;2023-12-20T00:00:37;67612.75;;;3.78;100.00
36354;BME280;22383;51.114;13.666;2023-12-20T00:03:07;67611.25;;;3.79;100.00
36354;BME280;22383;51.114;13.666;2023-12-20T00:05:34;67608.44;;;3.76;100.00
36354;BME280;22383;51.114;13.666;2023-12-20T00:08:03;67601.88;;;3.73;100.00
36354;BME280;22383;51.114;13.666;2023-12-20T00:10:32;67606.00;;;3.72;100.00
36354;BME280;22383;51.114;13.666;2023-12-20T00:12:59;67603.94;;;3.72;100.00
36354;BME280;22383;51.114;13.666;2023-12-20T00:15:26;67599.78;;;3.66;100.00
36354;BME280;22383;51.114;13.666;2023-12-20T00:17:53;67596.97;;;3.64;100.00
36354;BME280;22383;51.114;13.666;2023-12-20T00:20:21;67588.72;;;3.58;100.00
36354;BME280;22383;51.114;13.666;2023-12-20T00:22:48;67586.09;;;3.58;100.00
36354;BME280;22383;51.114;13.666;2023-12-20T00:25:15;67541.44;;;3.56;100.00
36354;BME280;22383;51.114;13.666;2023-12-20T00:27:43;67585.69;;;3.53;100.00
36354;BME280;22383;51.114;13.666;2023-12-20T00:30:10;67580.47;;;3.53;100.00
36354;BME280;22383;51.114;13.666;2023-12-20T00:32:38;67581.75;;;3.50;100.00
36354;BME280;22383;51.114;13.666;2023-12-20T00:35:05;67575.75;;;3.47;100.00
36354;BME280;22383;51.114;13.666;2023-12-20T00:37:32;67572.16;;;3.41;100.00
36354;BME280;22383;51.114;13.666;2023-12-20T00:40:00;67571.03;;;3.40;100.00
36354;BME280;22383;51.114;13.666;2023-12-20T00:42:27;67562.44;;;3.37;100.00
36354;BME280;22383;51.114;13.666;2023-12-20T00:44:54;67563.13;;;3.33;100.00
36354;BME280;22383;51.114;13.666;2023-12-20T00:47:21;67553.41;;;3.29;100.00
36354;BME280;22383;51.114;13.666;2023-12-20T00:49:49;67559.78;;;3.30;100.00
36354;BME280;22383;51.114;13.666;2023-12-20T00:52:16;67558.06;;;3.28;100.00
36354;BME280;22383;51.114;13.666;2023-12-20T00:54:45;67551.16;;;3.27;100.00
36354;BME280;22383;51.114;13.666;2023-12-20T00:57:12;67554.13;;;3.25;100.00
36354;BME280;22383;51.114;13.666;2023-12-20T00:59:39;67551.31;;;3.22;100.00
36354;BME280;22383;51.114;13.666;2023-12-20T01:02:06;67546.44;;;3.20;100.00
36354;BME280;22383;51.114;13.666;2023-12-20T01:04:34;67545.50;;;3.21;100.00
36354;BME280;22383;51.114;13.666;2023-12-20T01:07:01;67550.75;;;3.21;100.00
36354;BME280;22383;51.114;13.666;2023-12-20T01:09:28;67546.25;;;3.17;100.00
36354;BME280;22383;51.114;13.666;2023-12-20T01:11:55;67547.91;;;3.19;100.00
36354;BME280;22383;51.114;13.666;2023-12-20T01:14:22;67543.97;;;3.15;100.00
36354;BME280;22383;51.114;13.666;2023-12-20T01:16:49;67541.56;;;3.18;100.00
36354;BME280;22383;51.114;13.666;2023-12-20T01:19:16;67544.56;;;3.16;100.00
36354;BME280;22383;51.114;13.666;2023-12-20T01:21:44;67540.25;;;3.14;100.00
36354;BME280;22383;51.114;13.666;2023-12-20T01:24:11;67540.81;;;3.15;100.00
36354;BME280;22383;51.114;13.666;2023-12-20T01:26:38;67541.16;;;3.13;100.00
36354;BME280;22383;51.114;13.666;2023-12-20T01:29:05;67539.47;;;3.11;100.00
36354;BME280;22383;51.114;13.666;2023-12-20T01:31:32;67538.00;;;3.12;100.00
36354;BME280;22383;51.114;13.666;2023-12-20T01:34:00;67537.41;;;3.12;100.00
36354;BME280;22383;51.114;13.666;2023-12-20T01:36:27;67534.59;;;3.09;100.00
36354;BME280;22383;51.114;13.666;2023-12-20T01:38:54;67534.97;;;3.07;100.00
36354;BME280;22383;51.114;13.666;2023-12-20T01:41:21;67530.31;;;3.08;100.00
36354;BME280;22383;51.114;13.666;2023-12-20T01:43:49;67532.13;;;3.05;100.00
36354;BME280;22383;51.114;13.666;2023-12-20T01:46:18;67532.72;;;3.05;100.00
36354;BME280;22383;51.114;13.666;2023-12-20T01:48:48;67528.97;;;3.04;100.00
36354;BME280;22383;51.114;13.666;2023-12-20T01:51:15;67528.19;;;3.01;100.00
36354;BME280;22383;51.114;13.666;2023-12-20T01:53:43;67525.59;;;3.01;100.00
36354;BME280;22383;51.114;13.666;2023-12-20T01:56:10;67525.38;;;2.98;100.00
36354;BME280;22383;51.114;13.666;2023-12-20T01:58:43;67526.88;;;2.97;100.00
36354;BME280;22383;51.114;13.666;2023-12-20T02:01:11;67523.69;;;2.97;100.00
36354;BME280;22383;51.114;13.666;2023-12-20T02:03:40;67515.09;;;2.94;100.00
36354;BME280;22383;51.114;13.666;2023-12-20T02:06:08;67515.66;;;2.94;100.00
36354;BME280;22383;51.114;13.666;2023-12-20T02:08:35;67524.63;;;2.95;100.00
36354;BME280;22383;51.114;13.666;2023-12-20T02:11:03;67514.91;;;2.91;100.00
36354;BME280;22383;51.114;13.666;2023-12-20T02:13:31;67511.16;;;2.90;100.00
36354;BME280;22383;51.114;13.666;2023-12-20T02:16:00;67518.44;;;2.90;100.00
36354;BME280;22383;51.114;13.666;2023-12-20T02:18:28;67514.31;;;2.91;100.00
36354;BME280;22383;51.114;13.666;2023-12-20T02:20:55;67519.53;;;2.91;100.00
36354;BME280;22383;51.114;13.666;2023-12-20T02:23:23;67513.75;;;2.90;100.00
36354;BME280;22383;51.114;13.666;2023-12-20T02:25:51;67512.63;;;2.89;100.00
36354;BME280;22383;51.114;13.666;2023-12-20T02:28:18;67514.31;;;2.91;100.00
36354;BME280;22383;51.114;13.666;2023-12-20T02:30:45;67512.63;;;2.89;100.00
36354;BME280;22383;51.114;13.666;2023-12-20T02:33:13;67515.81;;;2.90;100.00
36354;BME280;22383;51.114;13.666;2023-12-20T02:35:41;67510.94;;;2.88;100.00
36354;BME280;22383;51.114;13.666;2023-12-20T02:38:08;67512.63;;;2.89;100.00
36354;BME280;22383;51.114;13.666;2023-12-20T02:40:35;67513.56;;;2.88;100.00
36354;BME280;22383;51.114;13.666;2023-12-20T02:43:02;67510.94;;;2.88;100.00
36354;BME280;22383;51.114;13.666;2023-12-20T02:45:29;67513.56;;;2.88;100.00
36354;BME280;22383;51.114;13.666;2023-12-20T02:47:57;67512.97;;;2.87;100.00
36354;BME280;22383;51.114;13.666;2023-12-20T02:50:24;67510.72;;;2.85;100.00
36354;BME280;22383;51.114;13.666;2023-12-20T02:52:51;67513.56;;;2.88;100.00
36354;BME280;22383;51.114;13.666;2023-12-20T02:55:18;67504.59;;;2.87;100.00
36354;BME280;22383;51.114;13.666;2023-12-20T02:57:45;67510.94;;;2.88;100.00
36354;BME280;22383;51.114;13.666;2023-12-20T03:00:13;67513.34;;;2.85;100.00
36354;BME280;22383;51.114;13.666;2023-12-20T03:02:40;67507.19;;;2.87;100.00
36354;BME280;22383;51.114;13.666;2023-12-20T03:05:08;67509.03;;;2.83;100.00
36354;BME280;22383;51.114;13.666;2023-12-20T03:07:36;67502.69;;;2.82;100.00
36354;BME280;22383;51.114;13.666;2023-12-20T03:10:05;67500.44;;;2.80;100.00
36354;BME280;22383;51.114;13.666;2023-12-20T03:12:46;67504.19;;;2.81;100.00
36354;BME280;22383;51.114;13.666;2023-12-20T03:15:13;67506.22;;;2.81;100.00
36354;BME280;22383;51.114;13.666;2023-12-20T03:17:40;67506.22;;;2.81;100.00
36354;BME280;22383;51.114;13.666;2023-12-20T03:20:08;67505.09;;;2.80;100.00
36354;BME280;22383;51.114;13.666;2023-12-20T03:22:35;67506.78;;;2.81;100.00
36354;BME280;22383;51.114;13.666;2023-12-20T03:25:03;67506.22;;;2.81;100.00
36354;BME280;22383;51.114;13.666;2023-12-20T03:27:30;67501.38;;;2.79;100.00
36354;BME280;22383;51.114;13.666;2023-12-20T03:29:57;67499.88;;;2.80;100.00
36354;BME280;22383;51.114;13.666;2023-12-20T03:32:24;67499.31;;;2.79;100.00
36354;BME280;22383;51.114;13.666;2023-12-20T03:34:52;67503.63;;;2.81;100.00
36354;BME280;22383;51.114;13.666;2023-12-20T03:37:19;67500.44;;;2.80;100.00
36354;BME280;22383;51.114;13.666;2023-12-20T03:39:46;67504.19;;;2.81;100.00
36354;BME280;22383;51.114;13.666;2023-12-20T03:42:14;67505.31;;;2.82;100.00
36354;BME280;22383;51.114;13.666;2023-12-20T03:44:41;67501.00;;;2.81;100.00
36354;BME280;22383;51.114;13.666;2023-12-20T03:47:08;67504.19;;;2.81;100.00
36354;BME280;22383;51.114;13.666;2023-12-20T03:49:35;67502.69;;;2.82;100.00
36354;BME280;22383;51.114;13.666;2023-12-20T03:52:04;67504.19;;;2.81;100.00
36354;BME280;22383;51.114;13.666;2023-12-20T03:54:33;67502.13;;;2.82;100.00
36354;BME280;22383;51.114;13.666;2023-12-20T03:57:00;67505.31;;;2.82;100.00
36354;BME280;22383;51.114;13.666;2023-12-20T03:59:27;67503.63;;;2.81;100.00
36354;BME280;22383;51.114;13.666;2023-12-20T04:01:54;67498.75;;;2.79;100.00
36354;BME280;22383;51.114;13.666;2023-12-20T04:04:21;67505.09;;;2.80;100.00
36354;BME280;22383;51.114;13.666;2023-12-20T04:06:49;67500.78;;;2.78;100.00
36354;BME280;22383;51.114;13.666;2023-12-20T04:09:16;67499.31;;;2.79;100.00
36354;BME280;22383;51.114;13.666;2023-12-20T04:11:43;67499.69;;;2.77;100.00
36354;BME280;22383;51.114;13.666;2023-12-20T04:14:10;67498.53;;;2.76;100.00
36354;BME280;22383;51.114;13.666;2023-12-20T04:16:38;67501.16;;;2.76;100.00
36354;BME280;22383;51.114;13.666;2023-12-20T04:19:06;67499.09;;;2.77;100.00
36354;BME280;22383;51.114;13.666;2023-12-20T04:21:33;67502.28;;;2.77;100.00
36354;BME280;22383;51.114;13.666;2023-12-20T04:24:00;67499.69;;;2.77;100.00
36354;BME280;22383;51.114;13.666;2023-12-20T04:26:27;67501.72;;;2.77;100.00
36354;BME280;22383;51.114;13.666;2023-12-20T04:28:54;67503.63;;;2.81;100.00
36354;BME280;22383;51.114;13.666;2023-12-20T04:31:21;67501.94;;;2.79;100.00
36354;BME280;22383;51.114;13.666;2023-12-20T04:33:49;67500.44;;;2.80;100.00
36354;BME280;22383;51.114;13.666;2023-12-20T04:36:16;67499.69;;;2.77;100.00
36354;BME280;22383;51.114;13.666;2023-12-20T04:38:44;67500.78;;;2.78;100.00
36354;BME280;22383;51.114;13.666;2023-12-20T04:41:11;67507.16;;;2.79;100.00
36354;BME280;22383;51.114;13.666;2023-12-20T04:43:42;67503.03;;;2.80;100.00
36354;BME280;22383;51.114;13.666;2023-12-20T04:46:09;67504.19;;;2.81;100.00
36354;BME280;22383;51.114;13.666;2023-12-20T04:48:36;67501.94;;;2.79;100.00
36354;BME280;22383;51.114;13.666;2023-12-20T04:51:04;67508.84;;;2.81;100.00
36354;BME280;22383;51.114;13.666;2023-12-20T04:53:31;67508.47;;;2.83;100.00
36354;BME280;22383;51.114;13.666;2023-12-20T04:55:58;67504.75;;;2.82;100.00
36354;BME280;22383;51.114;13.666;2023-12-20T04:58:25;67506.44;;;2.83;100.00
36354;BME280;22383;51.114;13.666;2023-12-20T05:00:53;67512.44;;;2.87;100.00
36354;BME280;22383;51.114;13.666;2023-12-20T05:03:20;67509.25;;;2.86;100.00
36354;BME280;22383;51.114;13.666;2023-12-20T05:05:47;67509.63;;;2.84;100.00
36354;BME280;22383;51.114;13.666;2023-12-20T05:08:15;67509.03;;;2.83;100.00
36354;BME280;22383;51.114;13.666;2023-12-20T05:10:43;67509.03;;;2.83;100.00
36354;BME280;22383;51.114;13.666;2023-12-20T05:13:10;67505.88;;;2.83;100.00
36354;BME280;22383;51.114;13.666;2023-12-20T05:15:37;67505.88;;;2.83;100.00
36354;BME280;22383;51.114;13.666;2023-12-20T05:18:05;67504.75;;;2.82;100.00
36354;BME280;22383;51.114;13.666;2023-12-20T05:20:32;67507.56;;;2.84;100.00
36354;BME280;22383;51.114;13.666;2023-12-20T05:22:59;67508.47;;;2.83;100.00
36354;BME280;22383;51.114;13.666;2023-12-20T05:25:26;67506.44;;;2.83;100.00
36354;BME280;22383;51.114;13.666;2023-12-20T05:27:54;67508.13;;;2.85;100.00
36354;BME280;22383;51.114;13.666;2023-12-20T05:30:23;67509.63;;;2.84;100.00
36354;BME280;22383;51.114;13.666;2023-12-20T05:32:50;67508.47;;;2.83;100.00
36354;BME280;22383;51.114;13.666;2023-12-20T05:35:18;67504.94;;;2.84;100.00
36354;BME280;22383;51.114;13.666;2023-12-20T05:37:46;67508.13;;;2.85;100.00
36354;BME280;22383;51.114;13.666;2023-12-20T05:40:13;67511.28;;;2.86;100.00
36354;BME280;22383;51.114;13.666;2023-12-20T05:42:41;67512.44;;;2.87;100.00
36354;BME280;22383;51.114;13.666;2023-12-20T05:45:09;67515.59;;;2.87;100.00
36354;BME280;22383;51.114;13.666;2023-12-20T05:47:36;67512.06;;;2.89;100.00
36354;BME280;22383;51.114;13.666;2023-12-20T05:50:04;67509.44;;;2.89;100.00
36354;BME280;22383;51.114;13.666;2023-12-20T05:52:31;67514.13;;;2.88;100.00
36354;BME280;22383;51.114;13.666;2023-12-20T05:54:58;67512.63;;;2.89;100.00
36354;BME280;22383;51.114;13.666;2023-12-20T05:57:28;67514.91;;;2.91;100.00
36354;BME280;22383;51.114;13.666;2023-12-20T05:59:55;67518.63;;;2.92;100.00
36354;BME280;22383;51.114;13.666;2023-12-20T06:02:23;67519.75;;;2.93;100.00
36354;BME280;22383;51.114;13.666;2023-12-20T06:04:50;67518.63;;;2.92;100.00
36354;BME280;22383;51.114;13.666;2023-12-20T06:07:17;67519.41;;;2.95;100.00
36354;BME280;22383;51.114;13.666;2023-12-20T06:09:45;67515.09;;;2.94;100.00
36354;BME280;22383;51.114;13.666;2023-12-20T06:12:12;67518.84;;;2.95;100.00
36354;BME280;22383;51.114;13.666;2023-12-20T06:14:39;67520.88;;;2.94;100.00
36354;BME280;22383;51.114;13.666;2023-12-20T06:17:06;67518.84;;;2.95;100.00
36354;BME280;22383;51.114;13.666;2023-12-20T06:19:33;67521.66;;;2.97;100.00
36354;BME280;22383;51.114;13.666;2023-12-20T06:22:01;67526.50;;;2.99;100.00
36354;BME280;22383;51.114;13.666;2023-12-20T06:24:28;67530.81;;;3.01;100.00
36354;BME280;22383;51.114;13.666;2023-12-20T06:26:56;67526.16;;;3.01;100.00
36354;BME280;22383;51.114;13.666;2023-12-20T06:29:23;67532.50;;;3.02;100.00
36354;BME280;22383;51.114;13.666;2023-12-20T06:31:51;67529.88;;;3.02;100.00
36354;BME280;22383;51.114;13.666;2023-12-20T06:34:18;67525.81;;;3.03;100.00
36354;BME280;22383;51.114;13.666;2023-12-20T06:36:45;67532.72;;;3.05;100.00
36354;BME280;22383;51.114;13.666;2023-12-20T06:39:12;67527.84;;;3.03;100.00
36354;BME280;22383;51.114;13.666;2023-12-20T06:41:40;67525.22;;;3.03;100.00
36354;BME280;22383;51.114;13.666;2023-12-20T06:44:08;67525.59;;;3.01;100.00
36354;BME280;22383;51.114;13.666;2023-12-20T06:46:35;67524.47;;;3.00;100.00
36354;BME280;22383;51.114;13.666;2023-12-20T06:49:02;67525.38;;;2.98;100.00
36354;BME280;22383;51.114;13.666;2023-12-20T06:51:29;67522.19;;;2.98;100.00
36354;BME280;22383;51.114;13.666;2023-12-20T06:53:57;67519.03;;;2.97;100.00
36354;BME280;22383;51.114;13.666;2023-12-20T06:56:25;67523.13;;;2.96;100.00
36354;BME280;22383;51.114;13.666;2023-12-20T06:58:52;67522.00;;;2.95;100.00
36354;BME280;22383;51.114;13.666;2023-12-20T07:01:19;67518.47;;;2.97;100.00
36354;BME280;22383;51.114;13.666;2023-12-20T07:03:46;67520.53;;;2.96;100.00
36354;BME280;22383;51.114;13.666;2023-12-20T07:06:13;67521.44;;;2.95;100.00
36354;BME280;22383;51.114;13.666;2023-12-20T07:08:44;67518.84;;;2.95;100.00
36354;BME280;22383;51.114;13.666;2023-12-20T07:11:11;67519.94;;;2.96;100.00
36354;BME280;22383;51.114;13.666;2023-12-20T07:13:38;67522.78;;;2.98;100.00
36354;BME280;22383;51.114;13.666;2023-12-20T07:16:06;67527.09;;;3.00;100.00
36354;BME280;22383;51.114;13.666;2023-12-20T07:18:33;67527.28;;;3.02;100.00
36354;BME280;22383;51.114;13.666;2023-12-20T07:21:00;67528.41;;;3.03;100.00
36354;BME280;22383;51.114;13.666;2023-12-20T07:23:27;67527.50;;;3.05;100.00
36354;BME280;22383;51.114;13.666;2023-12-20T07:25:54;67530.31;;;3.08;100.00
36354;BME280;22383;51.114;13.666;2023-12-20T07:28:22;67534.59;;;3.09;100.00
36354;BME280;22383;51.114;13.666;2023-12-20T07:30:49;67534.59;;;3.09;100.00
36354;BME280;22383;51.114;13.666;2023-12-20T07:33:16;67534.06;;;3.09;100.00
36354;BME280;22383;51.114;13.666;2023-12-20T07:35:43;67538.34;;;3.10;100.00
36354;BME280;22383;51.114;13.666;2023-12-20T07:38:12;67531.06;;;3.11;100.00
36354;BME280;22383;51.114;13.666;2023-12-20T07:40:39;67536.84;;;3.11;100.00
36354;BME280;22383;51.114;13.666;2023-12-20T07:43:07;67538.00;;;3.12;100.00
36354;BME280;22383;51.114;13.666;2023-12-20T07:45:34;67536.84;;;3.11;100.00
36354;BME280;22383;51.114;13.666;2023-12-20T07:48:01;67538.00;;;3.12;100.00
36354;BME280;22383;51.114;13.666;2023-12-20T07:50:28;67538.34;;;3.10;100.00
36354;BME280;22383;51.114;13.666;2023-12-20T07:52:56;67531.78;;;3.07;100.00
36354;BME280;22383;51.114;13.666;2023-12-20T07:55:23;67531.44;;;3.09;100.00
36354;BME280;22383;51.114;13.666;2023-12-20T07:57:50;67543.41;;;3.15;100.00
36354;BME280;22383;51.114;13.666;2023-12-20T08:00:18;67541.34;;;3.15;100.00
36354;BME280;22383;51.114;13.666;2023-12-20T08:02:45;67543.97;;;3.15;100.00
36354;BME280;22383;51.114;13.666;2023-12-20T08:05:12;67542.31;;;3.14;100.00
36354;BME280;22383;51.114;13.666;2023-12-20T08:07:42;67547.75;;;3.24;100.00
36354;BME280;22383;51.114;13.666;2023-12-20T08:10:10;67570.88;;;3.45;100.00
36354;BME280;22383;51.114;13.666;2023-12-20T08:12:37;67592.66;;;3.62;100.00
36354;BME280;22383;51.114;13.666;2023-12-20T08:15:05;67601.47;;;3.68;100.00
36354;BME280;22383;51.114;13.666;2023-12-20T08:17:32;67581.94;;;3.52;100.00
36354;BME280;22383;51.114;13.666;2023-12-20T08:19:59;67571.78;;;3.43;100.00
36354;BME280;22383;51.114;13.666;2023-12-20T08:22:27;67565.78;;;3.40;100.00
36354;BME280;22383;51.114;13.666;2023-12-20T08:24:54;67567.84;;;3.39;100.00
36354;BME280;22383;51.114;13.666;2023-12-20T08:27:22;67567.66;;;3.37;100.00
36354;BME280;22383;51.114;13.666;2023-12-20T08:29:49;67567.84;;;3.39;100.00
36354;BME280;22383;51.114;13.666;2023-12-20T08:32:17;67574.03;;;3.45;100.00
36354;BME280;22383;51.114;13.666;2023-12-20T08:34:44;67584.56;;;3.52;100.00
36354;BME280;22383;51.114;13.666;2023-12-20T08:37:12;67585.53;;;3.58;100.00
36354;BME280;22383;51.114;13.666;2023-12-20T08:39:39;67625.34;;;3.92;100.00
36354;BME280;22383;51.114;13.666;2023-12-20T08:42:11;67663.50;;;4.24;100.00
36354;BME280;22383;51.114;13.666;2023-12-20T08:44:38;67692.47;;;4.53;100.00
36354;BME280;22383;51.114;13.666;2023-12-20T08:47:05;67690.59;;;4.49;100.00
36354;BME280;22383;51.114;13.666;2023-12-20T08:49:33;67663.91;;;4.29;100.00
36354;BME280;22383;51.114;13.666;2023-12-20T08:52:00;67655.03;;;4.16;100.00
36354;BME280;22383;51.114;13.666;2023-12-20T08:54:27;67633.25;;;3.99;100.00
36354;BME280;22383;51.114;13.666;2023-12-20T08:56:54;67622.19;;;3.91;100.00
36354;BME280;22383;51.114;13.666;2023-12-20T08:59:21;67625.16;;;3.89;100.00
36354;BME280;22383;51.114;13.666;2023-12-20T09:01:48;67618.03;;;3.85;100.00
36354;BME280;22383;51.114;13.666;2023-12-20T09:04:21;67614.28;;;3.84;100.00
36354;BME280;22383;51.114;13.666;2023-12-20T09:06:48;67620.84;;;3.88;100.00
36354;BME280;22383;51.114;13.666;2023-12-20T09:09:16;67618.22;;;3.88;100.00
36354;BME280;22383;51.114;13.666;2023-12-20T09:11:43;67632.47;;;3.96;100.00
36354;BME280;22383;51.114;13.666;2023-12-20T09:14:13;67641.13;;;4.06;100.00
36354;BME280;22383;51.114;13.666;2023-12-20T09:16:40;67654.66;;;4.19;100.00
36354;BME280;22383;51.114;13.666;2023-12-20T09:19:07;67653.56;;;4.18;100.00
36354;BME280;22383;51.114;13.666;2023-12-20T09:21:34;67661.44;;;4.25;100.00
36354;BME280;22383;51.114;13.666;2023-12-20T09:24:02;67664.25;;;4.27;100.00
36354;BME280;22383;51.114;13.666;2023-12-20T09:26:29;67660.88;;;4.24;100.00
36354;BME280;22383;51.114;13.666;2023-12-20T09:28:56;67653.34;;;4.15;100.00
36354;BME280;22383;51.114;13.666;2023-12-20T09:31:23;67644.53;;;4.09;100.00
36354;BME280;22383;51.114;13.666;2023-12-20T09:33:50;67637.41;;;4.05;100.00
36354;BME280;22383;51.114;13.666;2023-12-20T09:36:18;67627.81;;;3.96;100.00
36354;BME280;22383;51.114;13.666;2023-12-20T09:38:46;67631.75;;;4.00;100.00
36354;BME280;22383;51.114;13.666;2023-12-20T09:41:13;67652.78;;;4.14;100.00
36354;BME280;22383;51.114;13.666;2023-12-20T09:43:41;67680.41;;;4.40;100.00
36354;BME280;22383;51.114;13.666;2023-12-20T09:46:08;67701.50;;;4.61;100.00
36354;BME280;22383;51.114;13.666;2023-12-20T09:48:39;67719.91;;;4.76;100.00
36354;BME280;22383;51.114;13.666;2023-12-20T09:51:07;67750.03;;;5.05;100.00
36354;BME280;22383;51.114;13.666;2023-12-20T09:53:36;67758.31;;;5.10;100.00
36354;BME280;22383;51.114;13.666;2023-12-20T09:56:05;67752.47;;;5.10;100.00
36354;BME280;22383;51.114;13.666;2023-12-20T09:58:36;67736.31;;;4.98;100.00
36354;BME280;22383;51.114;13.666;2023-12-20T10:01:04;67760.00;;;5.12;100.00
36354;BME280;22383;51.114;13.666;2023-12-20T10:03:31;67768.66;;;5.22;100.00
36354;BME280;22383;51.114;13.666;2023-12-20T10:05:58;67747.78;;;5.03;100.00
36354;BME280;22383;51.114;13.666;2023-12-20T10:08:27;67748.53;;;5.06;100.00
36354;BME280;22383;51.114;13.666;2023-12-20T10:10:57;67768.66;;;5.22;100.00
36354;BME280;22383;51.114;13.666;2023-12-20T10:13:29;67772.41;;;5.23;100.00
36354;BME280;22383;51.114;13.666;2023-12-20T10:15:56;67765.84;;;5.20;100.00
36354;BME280;22383;51.114;13.666;2023-12-20T10:18:24;67764.13;;;5.18;100.00
36354;BME280;22383;51.114;13.666;2023-12-20T10:21:06;67749.09;;;5.07;100.00
36354;BME280;22383;51.114;13.666;2023-12-20T10:23:33;67746.84;;;5.05;100.00
36354;BME280;22383;51.114;13.666;2023-12-20T10:26:00;67753.25;;;5.13;100.00
36354;BME280;22383;51.114;13.666;2023-12-20T10:28:33;67743.25;;;4.99;100.00
36354;BME280;22383;51.114;13.666;2023-12-20T10:31:02;67747.00;;;5.00;100.00
36354;BME280;22383;51.114;13.666;2023-12-20T10:33:30;67762.44;;;5.17;100.00
36354;BME280;22383;51.114;13.666;2023-12-20T10:36:00;67749.09;;;5.07;100.00
36354;BME280;22383;51.114;13.666;2023-12-20T10:38:27;67747.78;;;5.03;100.00
36354;BME280;22383;51.114;13.666;2023-12-20T10:40:57;67766.38;;;5.20;100.00
36354;BME280;22383;51.114;13.666;2023-12-20T10:43:28;67757.72;;;5.10;100.00
36354;BME280;22383;51.114;13.666;2023-12-20T10:45:56;67770.72;;;5.22;100.00
36354;BME280;22383;51.114;13.666;2023-12-20T10:48:24;67775.25;;;5.26;100.00
36354;BME280;22383;51.114;13.666;2023-12-20T10:50:57;67775.59;;;5.24;100.00
36354;BME280;22383;51.114;13.666;2023-12-20T10:53:25;67793.13;;;5.47;100.00
36354;BME280;22383;51.114;13.666;2023-12-20T10:55:55;67794.63;;;5.46;100.00
36354;BME280;22383;51.114;13.666;2023-12-20T10:58:25;67795.56;;;5.44;100.00
36354;BME280;22383;51.114;13.666;2023-12-20T11:00:59;67817.00;;;5.64;100.00
36354;BME280;22383;51.114;13.666;2023-12-20T11:03:28;67830.19;;;5.78;100.00
36354;BME280;22383;51.114;13.666;2023-12-20T11:06:13;67798.75;;;5.52;100.00
36354;BME280;22383;51.114;13.666;2023-12-20T11:08:51;67776.75;;;5.32;100.00
36354;BME280;22383;51.114;13.666;2023-12-20T11:11:29;67780.16;;;5.35;100.00
36354;BME280;22383;51.114;13.666;2023-12-20T11:14:02;67764.69;;;5.19;100.00
36354;BME280;22383;51.114;13.666;2023-12-20T11:16:37;67762.44;;;5.17;100.00
36354;BME280;22383;51.114;13.666;2023-12-20T11:19:18;67769.22;;;5.23;100.00
36354;BME280;22383;51.114;13.666;2023-12-20T11:21:46;67764.34;;;5.21;100.00
36354;BME280;22383;51.114;13.666;2023-12-20T11:24:15;67749.44;;;5.05;100.00
36354;BME280;22383;51.114;13.666;2023-12-20T11:26:47;67741.75;;;5.00;100.00
36354;BME280;22383;51.114;13.666;2023-12-20T11:29:29;67743.63;;;4.97;100.00
36354;BME280;22383;51.114;13.666;2023-12-20T11:31:57;67732.16;;;4.91;100.00
36354;BME280;22383;51.114;13.666;2023-12-20T11:34:27;67730.84;;;4.88;100.00
36354;BME280;22383;51.114;13.666;2023-12-20T11:37:00;67722.38;;;4.80;100.00
36354;BME280;22383;51.114;13.666;2023-12-20T11:39:28;67715.78;;;4.77;100.00
36354;BME280;22383;51.114;13.666;2023-12-20T11:41:56;67707.16;;;4.66;100.00
36354;BME280;22383;51.114;13.666;2023-12-20T11:44:25;67708.81;;;4.68;100.00
36354;BME280;22383;51.114;13.666;2023-12-20T11:46:54;67722.38;;;4.80;100.00
36354;BME280;22383;51.114;13.666;2023-12-20T11:49:25;67735.91;;;4.92;100.00
36354;BME280;22383;51.114;13.666;2023-12-20T11:51:52;67745.50;;;5.01;100.00
36354;BME280;22383;51.114;13.666;2023-12-20T11:54:19;67746.66;;;5.02;100.00
36354;BME280;22383;51.114;13.666;2023-12-20T11:56:47;67755.09;;;5.10;100.00
36354;BME280;22383;51.114;13.666;2023-12-20T11:59:14;67767.72;;;5.24;100.00
36354;BME280;22383;51.114;13.666;2023-12-20T12:01:50;67773.19;;;5.26;100.00
36354;BME280;22383;51.114;13.666;2023-12-20T12:04:19;67775.25;;;5.26;100.00
36354;BME280;22383;51.114;13.666;2023-12-20T12:06:46;67779.00;;;5.34;100.00
36354;BME280;22383;51.114;13.666;2023-12-20T12:09:14;67780.72;;;5.36;100.00
36354;BME280;22383;51.114;13.666;2023-12-20T12:11:42;67792.94;;;5.44;100.00
36354;BME280;22383;51.114;13.666;2023-12-20T12:14:10;67788.78;;;5.38;100.00
36354;BME280;22383;51.114;13.666;2023-12-20T12:16:37;67782.78;;;5.35;100.00
36354;BME280;22383;51.114;13.666;2023-12-20T12:19:04;67782.78;;;5.35;100.00
36354;BME280;22383;51.114;13.666;2023-12-20T12:21:31;67793.84;;;5.43;100.00
36354;BME280;22383;51.114;13.666;2023-12-20T12:24:09;67820.19;;;5.64;100.00
36354;BME280;22383;51.114;13.666;2023-12-20T12:26:37;67812.13;;;5.62;100.00
36354;BME280;22383;51.114;13.666;2023-12-20T12:29:07;67816.63;;;5.66;100.00
36354;BME280;22383;51.114;13.666;2023-12-20T12:31:35;67827.56;;;5.78;100.00
36354;BME280;22383;51.114;13.666;2023-12-20T12:34:03;67828.16;;;5.79;100.00
36354;BME280;22383;51.114;13.666;2023-12-20T12:36:30;67807.25;;;5.60;100.00
36354;BME280;22383;51.114;13.666;2023-12-20T12:38:57;67802.53;;;5.53;100.00
36354;BME280;22383;51.114;13.666;2023-12-20T12:41:25;67809.88;;;5.60;100.00
36354;BME280;22383;51.114;13.666;2023-12-20T12:43:52;67828.31;;;5.74;100.00
36354;BME280;22383;51.114;13.666;2023-12-20T12:46:20;67826.03;;;5.72;100.00
36354;BME280;22383;51.114;13.666;2023-12-20T12:48:47;67820.03;;;5.69;100.00
36354;BME280;22383;51.114;13.666;2023-12-20T12:51:14;67802.34;;;5.51;100.00
36354;BME280;22383;51.114;13.666;2023-12-20T12:53:42;67819.25;;;5.66;100.00